createdAt,value
2018-03-11T00:00:31.459Z,99255
2018-03-11T00:03:00.551Z,99257
2018-03-11T00:05:28.869Z,99255
2018-03-11T00:07:57.300Z,99262
2018-03-11T00:10:25.648Z,99266
2018-03-11T00:12:54.284Z,99258
2018-03-11T00:15:22.677Z,99257
2018-03-11T00:17:51.038Z,99256
2018-03-11T00:20:19.354Z,99251
2018-03-11T00:22:47.667Z,99250
2018-03-11T00:25:15.970Z,99258
2018-03-11T00:27:45.058Z,99252
2018-03-11T00:30:14.251Z,99250
2018-03-11T00:32:42.575Z,99246
2018-03-11T00:35:10.854Z,99245
2018-03-11T00:37:39.159Z,99251
2018-03-11T00:40:07.653Z,99242
2018-03-11T00:42:36.631Z,99237
2018-03-11T00:45:05.015Z,99244
2018-03-11T00:47:33.328Z,99237
2018-03-11T00:50:01.618Z,99244
2018-03-11T00:52:30.050Z,99240
2018-03-11T00:54:59.835Z,99242
2018-03-11T00:57:28.173Z,99243
2018-03-11T00:59:56.613Z,99236
2018-03-11T01:02:25.698Z,99235
2018-03-11T01:04:54.484Z,99234
2018-03-11T01:07:22.933Z,99228
2018-03-11T01:09:51.243Z,99219
2018-03-11T01:12:19.585Z,99214
2018-03-11T01:14:47.895Z,99212
2018-03-11T01:17:16.409Z,99209
2018-03-11T01:19:45.494Z,99208
2018-03-11T01:22:14.753Z,99206
2018-03-11T01:24:43.072Z,99199
2018-03-11T01:27:12.227Z,99200
2018-03-11T01:29:40.671Z,99195
2018-03-11T01:32:08.992Z,99191
2018-03-11T01:34:37.289Z,99187
2018-03-11T01:37:05.600Z,99184
2018-03-11T01:39:35.619Z,99171
2018-03-11T01:42:04.083Z,99165
2018-03-11T01:44:33.385Z,99169
2018-03-11T01:47:02.526Z,99167
2018-03-11T01:49:30.843Z,99163
2018-03-11T01:51:59.106Z,99155
2018-03-11T01:54:27.430Z,99151
2018-03-11T01:56:55.848Z,99154
2018-03-11T01:59:24.160Z,99150
2018-03-11T02:01:53.215Z,99140
2018-03-11T02:04:21.531Z,99143
2018-03-11T02:06:50.594Z,99142
2018-03-11T02:09:18.894Z,99135
2018-03-11T02:11:49.045Z,99136
2018-03-11T02:14:17.407Z,99136
2018-03-11T02:16:46.487Z,99128
2018-03-11T02:19:15.598Z,99129
2018-03-11T02:21:44.666Z,99123
2018-03-11T02:24:13.086Z,99121
2018-03-11T02:26:41.558Z,99116
2018-03-11T02:29:09.854Z,99108
2018-03-11T02:31:38.287Z,99102
2018-03-11T02:34:06.961Z,99098
2018-03-11T02:36:36.094Z,99085
2018-03-11T02:39:04.471Z,99079
2018-03-11T02:41:33.716Z,99072
2018-03-11T02:44:03.110Z,99067
2018-03-11T02:46:31.480Z,99066
2018-03-11T02:48:59.974Z,99056
2018-03-11T02:51:28.556Z,99058
2018-03-11T02:53:56.890Z,99055
2018-03-11T02:56:25.989Z,99056
2018-03-11T02:58:54.294Z,99049
2018-03-11T03:01:22.606Z,99043
2018-03-11T03:03:50.899Z,99052
2018-03-11T03:06:19.976Z,99047
2018-03-11T03:08:48.268Z,99036
2018-03-11T03:11:16.590Z,99042
2018-03-11T03:13:45.835Z,99037
2018-03-11T03:16:16.764Z,99034
2018-03-11T03:18:45.072Z,99034
2018-03-11T03:21:14.179Z,99026
2018-03-11T03:23:42.526Z,99022
2018-03-11T03:26:10.861Z,99019
2018-03-11T03:28:39.288Z,99018
2018-03-11T03:31:07.549Z,99013
2018-03-11T03:33:36.064Z,99007
2018-03-11T03:36:05.138Z,99012
2018-03-11T03:38:33.410Z,99007
2018-03-11T03:41:01.790Z,99012
2018-03-11T03:43:30.203Z,99012
2018-03-11T03:45:58.709Z,99009
2018-03-11T03:48:27.254Z,99017
2018-03-11T03:50:56.324Z,99009
2018-03-11T03:53:24.625Z,99002
2018-03-11T03:55:52.910Z,98995
2018-03-11T03:58:21.304Z,98987
2018-03-11T04:00:49.829Z,98987
2018-03-11T04:03:18.178Z,98983
2018-03-11T04:05:46.595Z,98979
2018-03-11T04:08:14.990Z,98970
2018-03-11T04:10:44.152Z,98970
2018-03-11T04:13:12.511Z,98975
2018-03-11T04:15:41.848Z,98972
2018-03-11T04:18:10.121Z,98962
2018-03-11T04:20:38.470Z,98959
2018-03-11T04:23:06.904Z,98959
2018-03-11T04:25:36.056Z,98952
2018-03-11T04:28:04.349Z,98951
2018-03-11T04:30:33.684Z,98948
2018-03-11T04:33:02.026Z,98949
2018-03-11T04:35:30.620Z,98945
2018-03-11T04:37:58.904Z,98936
2018-03-11T04:40:28.704Z,98934
2018-03-11T04:42:57.040Z,98934
2018-03-11T04:45:25.415Z,98935
2018-03-11T04:47:54.531Z,98931
2018-03-11T04:50:22.821Z,98928
2018-03-11T04:52:51.242Z,98918
2018-03-11T04:55:19.555Z,98912
2018-03-11T04:57:47.898Z,98904
2018-03-11T05:00:16.235Z,98900
2018-03-11T05:02:44.540Z,98902
2018-03-11T05:05:13.650Z,98884
2018-03-11T05:07:42.112Z,98874
2018-03-11T05:10:11.284Z,98874
2018-03-11T05:12:39.650Z,98870
2018-03-11T05:15:08.243Z,98862
2018-03-11T05:17:37.337Z,98855
2018-03-11T05:20:05.655Z,98850
2018-03-11T05:22:34.006Z,98854
2018-03-11T05:25:02.284Z,98855
2018-03-11T05:27:30.685Z,98868
2018-03-11T05:29:59.002Z,98870
2018-03-11T05:32:27.524Z,98873
2018-03-11T05:34:56.607Z,98864
2018-03-11T05:37:24.919Z,98857
2018-03-11T05:39:53.250Z,98849
2018-03-11T05:42:21.838Z,98827
2018-03-11T05:44:50.215Z,98813
2018-03-11T05:47:18.940Z,98815
2018-03-11T05:49:48.773Z,98808
2018-03-11T05:52:17.212Z,98804
2018-03-11T05:54:45.641Z,98808
2018-03-11T05:57:14.227Z,98824
2018-03-11T05:59:42.589Z,98837
2018-03-11T06:02:10.910Z,98833
2018-03-11T06:04:39.194Z,98829
2018-03-11T06:07:07.480Z,98831
2018-03-11T06:09:35.881Z,98832
2018-03-11T06:12:04.234Z,98838
2018-03-11T06:14:32.606Z,98843
2018-03-11T06:17:02.032Z,98841
2018-03-11T06:19:30.507Z,98828
2018-03-11T06:21:59.711Z,98824
2018-03-11T06:24:28.852Z,98816
2018-03-11T06:26:57.165Z,98802
2018-03-11T06:29:26.321Z,98794
2018-03-11T06:31:54.656Z,98792
2018-03-11T06:34:22.976Z,98789
2018-03-11T06:36:51.281Z,98791
2018-03-11T06:39:19.801Z,98790
2018-03-11T06:41:48.065Z,98783
2018-03-11T06:44:17.130Z,98784
2018-03-11T06:46:45.566Z,98790
2018-03-11T06:49:13.906Z,98799
2018-03-11T06:51:43.143Z,98802
2018-03-11T06:54:11.464Z,98787
2018-03-11T06:56:39.834Z,98784
2018-03-11T06:59:08.190Z,98777
2018-03-11T07:01:36.470Z,98768
2018-03-11T07:04:04.830Z,98768
2018-03-11T07:06:33.212Z,98761
2018-03-11T07:09:01.676Z,98750
2018-03-11T07:11:29.936Z,98755
2018-03-11T07:13:59.186Z,98756
2018-03-11T07:16:28.610Z,98761
2018-03-11T07:18:56.922Z,98763
2018-03-11T07:21:25.279Z,98766
2018-03-11T07:23:53.577Z,98761
2018-03-11T07:26:21.851Z,98760
2018-03-11T07:28:50.186Z,98757
2018-03-11T07:31:18.554Z,98759
2018-03-11T07:33:46.860Z,98753
2018-03-11T07:36:15.156Z,98744
2018-03-11T07:38:43.432Z,98744
2018-03-11T07:41:12.777Z,98747
2018-03-11T07:43:41.151Z,98734
2018-03-11T07:46:11.074Z,98736
2018-03-11T07:48:39.506Z,98740
2018-03-11T07:51:08.852Z,98740
2018-03-11T07:53:37.310Z,98737
2018-03-11T07:56:05.611Z,98742
2018-03-11T07:58:33.935Z,98739
2018-03-11T08:01:03.285Z,98738
2018-03-11T08:03:31.596Z,98745
2018-03-11T08:05:59.904Z,98754
2018-03-11T08:08:30.024Z,98756
2018-03-11T08:10:58.527Z,98757
2018-03-11T08:13:27.093Z,98749
2018-03-11T08:15:56.426Z,98755
2018-03-11T08:18:24.946Z,98755
2018-03-11T08:20:53.266Z,98752
2018-03-11T08:23:22.004Z,98760
2018-03-11T08:25:50.457Z,98761
2018-03-11T08:28:19.787Z,98761
2018-03-11T08:30:48.157Z,98760
2018-03-11T08:33:16.488Z,98762
2018-03-11T08:35:44.960Z,98749
2018-03-11T08:38:13.558Z,98760
2018-03-11T08:40:42.125Z,98760
2018-03-11T08:43:10.567Z,98761
2018-03-11T08:45:38.902Z,98751
2018-03-11T08:48:07.371Z,98757
2018-03-11T08:50:38.336Z,98765
2018-03-11T08:53:06.807Z,98759
2018-03-11T08:55:35.214Z,98761
2018-03-11T08:58:03.532Z,98751
2018-03-11T09:00:31.836Z,98747
2018-03-11T09:03:00.238Z,98748
2018-03-11T09:05:28.639Z,98744
2018-03-11T09:07:57.728Z,98745
2018-03-11T09:10:26.193Z,98736
2018-03-11T09:12:54.532Z,98731
2018-03-11T09:15:22.892Z,98722
2018-03-11T09:17:52.112Z,98715
2018-03-11T09:20:20.466Z,98724
2018-03-11T09:22:49.765Z,98722
2018-03-11T09:25:19.016Z,98726
2018-03-11T09:27:47.555Z,98719
2018-03-11T09:30:15.833Z,98733
2018-03-11T09:32:44.160Z,98733
2018-03-11T09:35:12.563Z,98727
2018-03-11T09:37:41.151Z,98724
2018-03-11T09:40:10.393Z,98718
2018-03-11T09:42:39.799Z,98713
2018-03-11T09:45:08.362Z,98706
2018-03-11T09:47:37.621Z,98703
2018-03-11T09:50:05.969Z,98702
2018-03-11T09:52:34.563Z,98694
2018-03-11T09:55:03.078Z,98700
2018-03-11T09:57:32.207Z,98707
2018-03-11T10:00:00.543Z,98704
2018-03-11T10:02:29.760Z,98707
2018-03-11T10:04:58.855Z,98693
2018-03-11T10:07:29.212Z,98699
2018-03-11T10:09:57.582Z,98696
2018-03-11T10:12:26.071Z,98693
2018-03-11T10:14:54.504Z,98695
2018-03-11T10:17:23.877Z,98709
2018-03-11T10:19:52.251Z,98699
2018-03-11T10:22:20.569Z,98694
2018-03-11T10:24:49.770Z,98692
2018-03-11T10:27:18.868Z,98683
2018-03-11T10:29:49.206Z,98676
2018-03-11T10:32:17.789Z,98680
2018-03-11T10:34:46.319Z,98672
2018-03-11T10:37:17.224Z,98670
2018-03-11T10:39:45.669Z,98672
2018-03-11T10:42:13.990Z,98680
2018-03-11T10:44:42.313Z,98672
2018-03-11T10:47:11.854Z,98676
2018-03-11T10:49:40.189Z,98668
2018-03-11T10:52:12.887Z,98659
2018-03-11T10:54:41.229Z,98662
2018-03-11T10:57:09.551Z,98664
2018-03-11T10:59:39.633Z,98654
2018-03-11T11:02:13.446Z,98654
2018-03-11T11:04:42.859Z,98650
2018-03-11T11:07:11.166Z,98650
2018-03-11T11:09:39.823Z,98654
2018-03-11T11:12:08.922Z,98654
2018-03-11T11:14:37.516Z,98660
2018-03-11T11:17:06.639Z,98650
2018-03-11T11:19:35.088Z,98666
2018-03-11T11:22:03.538Z,98658
2018-03-11T11:24:31.833Z,98662
2018-03-11T11:27:01.103Z,98652
2018-03-11T11:29:29.383Z,98645
2018-03-11T11:31:57.747Z,98656
2018-03-11T11:34:27.966Z,98662
2018-03-11T11:36:56.329Z,98664
2018-03-11T11:39:24.678Z,98672
2018-03-11T11:41:53.928Z,98673
2018-03-11T11:44:22.864Z,98674
2018-03-11T11:46:52.117Z,98672
2018-03-11T11:49:20.464Z,98681
2018-03-11T11:51:48.768Z,98674
2018-03-11T11:54:17.231Z,98676
2018-03-11T11:56:45.726Z,98671
2018-03-11T11:59:14.258Z,98684
2018-03-11T12:01:43.647Z,98672
2018-03-11T12:04:12.159Z,98675
2018-03-11T12:06:40.659Z,98666
2018-03-11T12:09:09.127Z,98678
2018-03-11T12:11:37.467Z,98680
2018-03-11T12:14:05.958Z,98672
2018-03-11T12:16:35.032Z,98669
2018-03-11T12:19:03.441Z,98661
2018-03-11T12:21:32.527Z,98648
2018-03-11T12:24:02.868Z,98647
2018-03-11T12:26:31.214Z,98648
2018-03-11T12:28:59.587Z,98641
2018-03-11T12:31:28.097Z,98636
2018-03-11T12:33:57.318Z,98639
2018-03-11T12:36:25.638Z,98630
2018-03-11T12:38:54.011Z,98622
2018-03-11T12:41:22.377Z,98616
2018-03-11T12:43:50.760Z,98599
2018-03-11T12:46:19.120Z,98599
2018-03-11T12:48:47.658Z,98598
2018-03-11T12:51:18.092Z,98594
2018-03-11T12:53:47.429Z,98593
2018-03-11T12:56:15.768Z,98595
2018-03-11T12:58:44.202Z,98590
2018-03-11T13:01:12.580Z,98616
2018-03-11T13:03:41.119Z,98590
2018-03-11T13:06:09.506Z,98582
2018-03-11T13:08:37.842Z,98580
2018-03-11T13:11:07.187Z,98586
2018-03-11T13:13:35.563Z,98586
2018-03-11T13:16:04.271Z,98590
2018-03-11T13:18:32.795Z,98581
2018-03-11T13:21:09.749Z,98575
2018-03-11T13:23:38.898Z,98579
2018-03-11T13:26:07.972Z,98580
2018-03-11T13:28:50.138Z,98582
2018-03-11T13:31:18.458Z,98569
2018-03-11T13:34:14.787Z,98575
2018-03-11T13:36:43.383Z,98580
2018-03-11T13:39:29.500Z,98576
2018-03-11T13:41:57.903Z,98577
2018-03-11T13:44:26.433Z,98566
2018-03-11T13:47:14.511Z,98571
2018-03-11T13:49:43.068Z,98573
2018-03-11T13:52:30.621Z,98574
2018-03-11T13:54:59.247Z,98577
2018-03-11T14:01:00.363Z,98568
2018-03-11T14:03:29.651Z,98564
2018-03-11T14:05:57.971Z,98556
2018-03-11T14:08:26.378Z,98549
2018-03-11T14:10:54.953Z,98547
2018-03-11T14:13:24.252Z,98540
2018-03-11T14:15:53.340Z,98538
2018-03-11T14:18:22.600Z,98537
2018-03-11T14:20:50.972Z,98539
2018-03-11T14:23:21.069Z,98534
2018-03-11T14:25:49.421Z,98547
2018-03-11T14:28:18.702Z,98550
2018-03-11T14:30:47.058Z,98543
2018-03-11T14:33:16.238Z,98551
2018-03-11T14:35:44.742Z,98549
2018-03-11T14:38:13.164Z,98546
2018-03-11T14:40:41.679Z,98552
2018-03-11T14:43:10.259Z,98544
2018-03-11T14:45:38.672Z,98561
2018-03-11T14:48:07.022Z,98565
2018-03-11T14:50:36.618Z,98563
2018-03-11T14:53:05.051Z,98576
2018-03-11T14:55:33.501Z,98577
2018-03-11T14:58:01.802Z,98577
2018-03-11T15:00:30.237Z,98579
2018-03-11T15:02:58.667Z,98575
2018-03-11T15:05:27.404Z,98587
2018-03-11T15:07:55.968Z,98584
2018-03-11T15:10:24.349Z,98585
2018-03-11T15:12:53.878Z,98583
2018-03-11T15:15:22.400Z,98583
2018-03-11T15:17:51.554Z,98582
2018-03-11T15:20:21.080Z,98581
2018-03-11T15:22:49.969Z,98580
2018-03-11T15:25:18.510Z,98581
2018-03-11T15:27:47.174Z,98581
2018-03-11T15:30:16.296Z,98573
2018-03-11T15:32:44.627Z,98568
2018-03-11T15:35:13.111Z,98565
2018-03-11T15:37:41.495Z,98563
2018-03-11T15:40:09.956Z,98572
2018-03-11T15:42:38.514Z,98567
2018-03-11T15:45:07.771Z,98573
2018-03-11T15:47:37.315Z,98560
2018-03-11T15:50:09.075Z,98560
2018-03-11T15:52:37.388Z,98567
2018-03-11T15:55:06.047Z,98566
2018-03-11T15:57:34.600Z,98563
2018-03-11T16:00:03.898Z,98563
2018-03-11T16:02:33.766Z,98560
2018-03-11T16:05:02.155Z,98561
2018-03-11T16:07:30.707Z,98559
2018-03-11T16:09:59.384Z,98558
2018-03-11T16:12:27.717Z,98559
2018-03-11T16:14:56.899Z,98558
2018-03-11T16:17:25.348Z,98556
2018-03-11T16:19:55.949Z,98553
2018-03-11T16:22:24.465Z,98558
2018-03-11T16:24:54.675Z,98558
2018-03-11T16:27:24.180Z,98557
2018-03-11T16:29:52.625Z,98564
2018-03-11T16:32:21.708Z,98564
2018-03-11T16:34:50.395Z,98567
2018-03-11T16:37:19.635Z,98568
2018-03-11T16:39:48.047Z,98567
2018-03-11T16:42:16.546Z,98564
2018-03-11T16:44:44.998Z,98567
2018-03-11T16:47:13.607Z,98579
2018-03-11T16:49:42.020Z,98576
2018-03-11T16:52:10.800Z,98577
2018-03-11T16:54:40.058Z,98576
2018-03-11T16:57:08.474Z,98584
2018-03-11T16:59:38.054Z,98583
2018-03-11T17:02:06.479Z,98575
2018-03-11T17:04:34.848Z,98580
2018-03-11T17:07:04.322Z,98579
2018-03-11T17:09:32.670Z,98575
2018-03-11T17:12:01.023Z,98570
2018-03-11T17:14:29.715Z,98569
2018-03-11T17:16:58.190Z,98572
2018-03-11T17:19:26.858Z,98573
2018-03-11T17:21:55.255Z,98576
2018-03-11T17:26:58.961Z,98569
2018-03-11T17:29:27.449Z,98558
2018-03-11T17:31:55.789Z,98562
2018-03-11T17:34:24.255Z,98563
2018-03-11T17:36:55.369Z,98565
2018-03-11T17:39:24.552Z,98564
2018-03-11T17:41:53.221Z,98568
2018-03-11T17:44:21.688Z,98562
2018-03-11T17:46:52.536Z,98570
2018-03-11T17:49:22.009Z,98572
2018-03-11T17:51:50.832Z,98576
2018-03-11T17:54:19.461Z,98578
2018-03-11T17:56:48.020Z,98577
2018-03-11T17:59:16.596Z,98572
2018-03-11T18:04:18.610Z,98589
2018-03-11T18:06:47.313Z,98582
2018-03-11T18:09:15.896Z,98585
2018-03-11T18:11:45.975Z,98581
2018-03-11T18:14:14.369Z,98580
2018-03-11T18:16:42.840Z,98584
2018-03-11T18:19:11.314Z,98585
2018-03-11T18:21:40.016Z,98586
2018-03-11T18:24:08.567Z,98584
2018-03-11T18:26:36.930Z,98590
2018-03-11T18:29:06.178Z,98589
2018-03-11T18:31:34.550Z,98591
2018-03-11T18:34:04.065Z,98590
2018-03-11T18:36:32.605Z,98596
2018-03-11T18:39:01.005Z,98605
2018-03-11T18:41:29.372Z,98608
2018-03-11T18:43:57.950Z,98607
2018-03-11T18:46:30.395Z,98610
2018-03-11T18:48:59.755Z,98610
2018-03-11T18:51:28.233Z,98607
2018-03-11T18:53:57.944Z,98605
2018-03-11T18:56:26.407Z,98601
2018-03-11T18:58:54.808Z,98597
2018-03-11T19:01:23.106Z,98594
2018-03-11T19:03:51.555Z,98591
2018-03-11T19:06:20.055Z,98599
2018-03-11T19:08:50.000Z,98602
2018-03-11T19:11:19.310Z,98597
2018-03-11T19:13:48.649Z,98595
2018-03-11T19:16:17.035Z,98570
2018-03-11T19:18:45.508Z,98603
2018-03-11T19:21:13.966Z,98599
2018-03-11T19:23:43.823Z,98599
2018-03-11T19:26:14.616Z,98600
2018-03-11T19:28:43.705Z,98602
2018-03-11T19:31:12.224Z,98603
2018-03-11T19:33:40.614Z,98605
2018-03-11T19:36:09.070Z,98602
2018-03-11T19:38:37.799Z,98604
2018-03-11T19:41:06.115Z,98593
2018-03-11T19:43:34.607Z,98595
2018-03-11T19:46:03.070Z,98603
2018-03-11T19:48:31.647Z,98596
2018-03-11T19:51:01.094Z,98592
2018-03-11T19:53:29.876Z,98592
2018-03-11T19:55:58.595Z,98589
2018-03-11T20:01:00.918Z,98582
2018-03-11T20:03:30.200Z,98583
2018-03-11T20:05:59.349Z,98580
2018-03-11T20:08:27.744Z,98581
2018-03-11T20:10:56.304Z,98579
2018-03-11T20:13:24.682Z,98577
2018-03-11T20:15:53.204Z,98576
2018-03-11T20:18:21.762Z,98572
2018-03-11T20:20:50.179Z,98577
2018-03-11T20:23:19.423Z,98583
2018-03-11T20:25:47.829Z,98580
2018-03-11T20:28:16.330Z,98578
2018-03-11T20:30:44.671Z,98580
2018-03-11T20:33:13.357Z,98581
2018-03-11T20:35:41.886Z,98582
2018-03-11T20:38:11.027Z,98580
2018-03-11T20:40:40.926Z,98580
2018-03-11T20:43:10.940Z,98588
2018-03-11T20:45:40.175Z,98588
2018-03-11T20:48:08.594Z,98590
2018-03-11T20:50:37.749Z,98584
2018-03-11T20:53:06.193Z,98583
2018-03-11T20:55:34.546Z,98583
2018-03-11T20:58:02.930Z,98581
2018-03-11T21:00:32.279Z,98581
2018-03-11T21:03:00.963Z,98576
2018-03-11T21:05:29.349Z,98578
2018-03-11T21:07:57.661Z,98577
2018-03-11T21:10:26.339Z,98575
2018-03-11T21:12:54.679Z,98573
2018-03-11T21:15:23.366Z,98573
2018-03-11T21:17:51.688Z,98575
2018-03-11T21:20:20.080Z,98575
2018-03-11T21:22:49.500Z,98575
2018-03-11T21:25:18.645Z,98576
2018-03-11T21:27:46.932Z,98569
2018-03-11T21:30:27.925Z,98570
2018-03-11T21:32:56.289Z,98571
2018-03-11T21:35:25.589Z,98569
2018-03-11T21:37:54.834Z,98577
2018-03-11T21:40:23.215Z,98569
2018-03-11T21:42:51.541Z,98572
2018-03-11T21:45:21.554Z,98573
2018-03-11T21:47:49.898Z,98564
2018-03-11T21:50:18.262Z,98565
2018-03-11T21:52:46.897Z,98558
2018-03-11T21:55:15.244Z,98559
2018-03-11T21:57:43.608Z,98553
2018-03-11T22:00:13.684Z,98554
2018-03-11T22:02:43.455Z,98563
2018-03-11T22:05:11.828Z,98558
2018-03-11T22:07:40.185Z,98558
2018-03-11T22:10:10.859Z,98551
2018-03-11T22:12:39.215Z,98556
2018-03-11T22:15:07.708Z,98555
2018-03-11T22:17:35.976Z,98548
2018-03-11T22:20:04.441Z,98548
2018-03-11T22:22:32.927Z,98552
2018-03-11T22:25:01.289Z,98550
2018-03-11T22:27:29.755Z,98544
2018-03-11T22:29:58.910Z,98547
2018-03-11T22:32:27.233Z,98548
2018-03-11T22:34:55.535Z,98537
2018-03-11T22:37:23.885Z,98532
2018-03-11T22:39:53.041Z,98528
2018-03-11T22:42:21.557Z,98531
2018-03-11T22:44:50.682Z,98530
2018-03-11T22:47:19.069Z,98532
2018-03-11T22:49:47.516Z,98530
2018-03-11T22:52:16.780Z,98529
2018-03-11T22:54:45.092Z,98530
2018-03-11T22:57:14.255Z,98524
2018-03-11T22:59:42.649Z,98519
2018-03-11T23:02:10.990Z,98521
2018-03-11T23:04:39.260Z,98520
2018-03-11T23:07:07.766Z,98515
2018-03-11T23:09:36.129Z,98508
2018-03-11T23:12:05.539Z,98505
2018-03-11T23:14:33.861Z,98491
2018-03-11T23:17:02.210Z,98491
2018-03-11T23:19:30.548Z,98495
2018-03-11T23:21:58.861Z,98497
2018-03-11T23:24:27.162Z,98496
2018-03-11T23:26:56.286Z,98497
2018-03-11T23:29:24.587Z,98495
2018-03-11T23:31:52.951Z,98498
2018-03-11T23:34:21.221Z,98498
2018-03-11T23:36:49.439Z,98501
2018-03-11T23:39:17.716Z,98502
2018-03-11T23:41:47.656Z,98509
2018-03-11T23:44:17.884Z,98506
2018-03-11T23:46:46.937Z,98508
2018-03-11T23:49:15.245Z,98507
2018-03-11T23:51:44.320Z,98509
2018-03-11T23:54:12.656Z,98515
2018-03-11T23:56:40.950Z,98513
2018-03-11T23:59:09.215Z,98517
